Time;durP1;ratioP1;P1;durP2;ratioP2;P2;SDS_P1;SDS_P2;PMS_P1;PMS_P2;Temp;Humidity;BMP_temperature;BMP_pressure;BME280_temperature;BME280_humidity;BME280_pressure;Samples;Min_cycle;Max_cycle;Signal;HPM_P1;HPM_P2
2021/08/04 00:01:11;;;;;;;2.22;1.67;;;15.00;76.60;;;;;;5154493;27;20026;-71
2021/08/04 00:03:36;;;;;;;2.17;1.65;;;14.90;77.00;;;;;;5154189;27;20022;-71
2021/08/04 00:06:02;;;;;;;2.90;1.50;;;14.90;76.70;;;;;;5154312;27;20018;-71
2021/08/04 00:08:28;;;;;;;1.95;1.50;;;14.90;76.30;;;;;;5154336;27;20018;-72
2021/08/04 00:10:53;;;;;;;3.88;1.55;;;14.90;76.10;;;;;;5154280;27;20030;-71
2021/08/04 00:13:19;;;;;;;4.00;1.73;;;14.80;75.60;;;;;;5154175;27;20042;-71
2021/08/04 00:15:44;;;;;;;3.50;1.35;;;14.80;75.90;;;;;;5154235;27;20034;-71
2021/08/04 00:18:10;;;;;;;8.23;1.70;;;14.80;76.10;;;;;;5154121;27;20044;-71
2021/08/04 00:20:36;;;;;;;3.75;1.73;;;14.70;76.50;;;;;;5154083;27;20015;-71
2021/08/04 00:23:01;;;;;;;1.67;1.30;;;14.70;76.40;;;;;;5154126;27;20054;-70
2021/08/04 00:25:28;;;;;;;5.47;1.50;;;14.70;76.50;;;;;;5154134;27;20023;-70
2021/08/04 00:27:53;;;;;;;1.75;1.30;;;14.70;76.60;;;;;;5155679;27;20065;-71
2021/08/04 00:30:19;;;;;;;2.22;1.60;;;14.70;77.10;;;;;;5157738;27;20058;-71
2021/08/04 00:32:45;;;;;;;2.85;1.63;;;14.70;77.00;;;;;;5157752;27;20067;-71
2021/08/04 00:35:10;;;;;;;2.33;1.70;;;14.70;77.40;;;;;;5157632;27;20390;-71
2021/08/04 00:37:36;;;;;;;2.17;1.48;;;14.60;76.50;;;;;;5157594;27;20030;-70
2021/08/04 00:40:04;;;;;;;4.40;1.50;;;14.60;77.20;;;;;;5157625;27;20501;-70
2021/08/04 00:42:29;;;;;;;4.65;1.73;;;14.70;77.60;;;;;;5157663;27;20015;-70
2021/08/04 00:44:55;;;;;;;2.40;1.73;;;14.70;77.80;;;;;;5157574;27;20041;-71
2021/08/04 00:47:20;;;;;;;2.70;1.40;;;14.70;78.00;;;;;;5157458;27;20363;-71
2021/08/04 00:49:46;;;;;;;6.78;1.92;;;14.70;76.40;;;;;;5157157;27;20034;-71
2021/08/04 00:52:12;;;;;;;3.13;1.48;;;14.60;76.20;;;;;;5157383;27;20532;-71
2021/08/04 00:54:37;;;;;;;1.35;1.20;;;14.70;76.50;;;;;;5157289;27;20091;-71
2021/08/04 00:57:03;;;;;;;3.60;1.52;;;14.60;76.30;;;;;;5157387;27;20057;-70
2021/08/04 00:59:29;;;;;;;3.65;1.48;;;14.60;76.40;;;;;;5157097;27;20534;-70
2021/08/04 01:02:07;;;;;;;1.88;1.60;;;14.60;77.30;;;;;;5157201;27;20412;-70
2021/08/04 01:04:42;;;;;;;3.10;1.50;;;14.50;76.40;;;;;;5157045;27;20040;-70
2021/08/04 01:07:20;;;;;;;5.05;1.95;;;14.50;76.20;;;;;;5157143;27;20047;-71
2021/08/04 01:09:49;;;;;;;2.13;1.60;;;14.40;76.40;;;;;;5138474;27;20034;-71
2021/08/04 01:12:24;;;;;;;2.22;1.30;;;14.40;76.30;;;;;;5156908;27;20084;-71
2021/08/04 01:14:54;;;;;;;2.57;1.67;;;14.50;76.70;;;;;;5156934;27;20153;-71
2021/08/04 01:17:19;;;;;;;2.00;1.80;;;14.50;76.40;;;;;;5156898;27;20268;-71
2021/08/04 01:20:01;;;;;;;3.08;1.45;;;14.40;77.00;;;;;;5156779;27;20352;-71
2021/08/04 01:22:53;;;;;;;2.35;1.50;;;14.40;77.00;;;;;;5156809;27;20037;-71
2021/08/04 01:25:21;;;;;;;3.65;1.80;;;14.50;77.60;;;;;;5145489;27;20034;-71
2021/08/04 01:28:09;;;;;;;3.63;1.70;;;14.50;78.20;;;;;;5156508;27;20062;-71
2021/08/04 01:30:34;;;;;;;2.33;1.50;;;14.50;77.70;;;;;;5137911;27;20038;-71
2021/08/04 01:33:00;;;;;;;2.92;1.77;;;14.50;78.10;;;;;;5156443;27;20038;-71
2021/08/04 01:35:26;;;;;;;1.60;1.50;;;14.50;78.50;;;;;;5156555;27;20023;-71
2021/08/04 01:37:52;;;;;;;1.92;1.60;;;14.50;78.50;;;;;;5155996;27;20438;-71
2021/08/04 01:40:18;;;;;;;4.15;1.77;;;14.50;77.30;;;;;;5156443;27;20384;-70
2021/08/04 01:42:44;;;;;;;2.42;2.05;;;14.40;77.60;;;;;;5156251;27;20541;-71
2021/08/04 01:45:10;;;;;;;2.85;1.50;;;14.40;77.50;;;;;;5156293;27;20015;-71
2021/08/04 01:47:37;;;;;;;2.28;1.70;;;14.30;77.60;;;;;;5156068;27;20027;-71
2021/08/04 01:50:03;;;;;;;2.00;1.75;;;14.40;77.70;;;;;;5156097;27;20071;-71
2021/08/04 01:52:30;;;;;;;3.17;1.75;;;14.40;77.50;;;;;;5155887;27;20018;-72
2021/08/04 01:54:56;;;;;;;3.88;1.63;;;14.40;77.10;;;;;;5159097;27;20026;-71
2021/08/04 01:57:22;;;;;;;2.50;1.60;;;14.40;77.70;;;;;;5156349;27;20025;-71
2021/08/04 01:59:48;;;;;;;3.30;1.98;;;14.40;77.70;;;;;;5155881;27;20552;-71
2021/08/04 02:02:21;;;;;;;2.42;1.90;;;14.50;78.10;;;;;;5156037;27;20029;-71
2021/08/04 02:04:47;;;;;;;3.45;1.88;;;14.50;79.20;;;;;;5156001;27;20030;-71
2021/08/04 02:07:42;;;;;;;5.75;1.65;;;14.50;78.90;;;;;;5155855;27;20105;-71
2021/08/04 02:10:09;;;;;;;1.70;1.45;;;14.50;79.20;;;;;;5155870;27;20029;-72
2021/08/04 02:12:41;;;;;;;2.67;1.80;;;14.50;79.30;;;;;;5155639;27;20059;-73
2021/08/04 02:15:11;;;;;;;2.63;1.58;;;14.50;79.50;;;;;;5155789;27;20027;-72
2021/08/04 02:17:39;;;;;;;2.80;1.70;;;14.50;79.90;;;;;;5155564;27;20022;-72
2021/08/04 02:20:26;;;;;;;4.10;1.58;;;14.50;79.80;;;;;;5155679;27;20030;-72
2021/08/04 02:23:15;;;;;;;2.22;1.63;;;14.40;79.50;;;;;;5155587;27;20482;-71
2021/08/04 02:25:45;;;;;;;4.97;1.80;;;14.40;80.50;;;;;;5155464;27;20018;-72
2021/08/04 02:28:17;;;;;;;2.05;1.42;;;14.40;79.40;;;;;;5155522;27;20482;-71
2021/08/04 02:30:43;;;;;;;2.47;1.45;;;14.30;79.20;;;;;;5155502;27;20485;-72
2021/08/04 02:33:09;;;;;;;2.72;1.80;;;14.30;79.50;;;;;;5155317;27;20031;-72
2021/08/04 02:35:35;;;;;;;1.52;1.40;;;14.30;79.70;;;;;;5155237;27;20110;-72
2021/08/04 02:38:01;;;;;;;1.98;1.50;;;14.40;79.80;;;;;;5155322;27;20027;-71
2021/08/04 02:40:26;;;;;;;2.10;1.90;;;14.40;80.00;;;;;;5159914;27;20090;-71
2021/08/04 02:42:54;;;;;;;2.80;1.67;;;14.40;80.30;;;;;;5164701;27;20026;-71
2021/08/04 02:45:20;;;;;;;3.00;1.85;;;14.40;80.70;;;;;;5161403;27;20015;-71
2021/08/04 02:47:46;;;;;;;1.80;1.50;;;14.40;80.40;;;;;;5155093;27;20034;-72
2021/08/04 02:50:13;;;;;;;2.17;1.45;;;14.40;80.30;;;;;;5154255;27;20062;-73
2021/08/04 02:52:41;;;;;;;2.50;1.95;;;14.40;80.30;;;;;;5155065;27;20035;-72
2021/08/04 02:55:07;;;;;;;3.45;1.60;;;14.40;80.60;;;;;;5136535;27;20102;-71
2021/08/04 02:57:33;;;;;;;4.43;1.50;;;14.40;81.60;;;;;;5154936;27;20023;-72
2021/08/04 02:59:59;;;;;;;2.88;1.23;;;14.30;80.70;;;;;;5155092;27;20021;-71
2021/08/04 03:02:24;;;;;;;8.00;1.95;;;14.30;80.80;;;;;;5156179;27;20026;-72
2021/08/04 03:04:50;;;;;;;1.80;1.58;;;14.30;80.90;;;;;;5158303;27;20053;-71
2021/08/04 03:07:15;;;;;;;3.80;1.67;;;14.30;81.00;;;;;;5156230;27;20023;-72
2021/08/04 03:09:41;;;;;;;2.00;1.48;;;14.30;81.40;;;;;;5155074;27;20035;-71
2021/08/04 03:12:07;;;;;;;3.85;1.80;;;14.30;81.70;;;;;;5154910;27;20038;-72
2021/08/04 03:14:32;;;;;;;4.00;1.77;;;14.30;81.90;;;;;;5154751;27;20467;-71
2021/08/04 03:16:58;;;;;;;1.98;1.60;;;14.20;81.90;;;;;;5154823;27;20050;-71
2021/08/04 03:19:23;;;;;;;3.80;1.40;;;14.20;82.10;;;;;;5154936;27;20098;-71
2021/08/04 03:21:49;;;;;;;3.08;1.80;;;14.20;82.20;;;;;;5154712;27;20019;-70
2021/08/04 03:24:15;;;;;;;7.22;1.73;;;14.20;82.30;;;;;;5154876;27;20027;-71
2021/08/04 03:26:40;;;;;;;2.05;1.35;;;14.20;82.30;;;;;;5154681;27;20489;-71
2021/08/04 03:29:06;;;;;;;2.17;1.50;;;14.20;82.50;;;;;;5154760;27;20383;-71
2021/08/04 03:31:32;;;;;;;3.38;1.75;;;14.20;83.00;;;;;;5154562;27;20015;-72
2021/08/04 03:33:58;;;;;;;3.53;1.90;;;14.20;83.00;;;;;;5154587;27;20018;-71
2021/08/04 03:36:25;;;;;;;1.63;1.52;;;14.20;83.00;;;;;;5154521;27;20477;-72
2021/08/04 03:38:50;;;;;;;2.95;1.60;;;14.10;83.30;;;;;;5154469;27;20031;-72
2021/08/04 03:41:16;;;;;;;2.90;1.98;;;14.20;83.20;;;;;;5154555;27;20372;-74
2021/08/04 03:43:42;;;;;;;1.90;1.75;;;14.10;83.00;;;;;;5154443;27;20526;-72
2021/08/04 03:46:07;;;;;;;2.92;1.50;;;14.10;83.00;;;;;;5154366;27;20425;-72
2021/08/04 03:48:33;;;;;;;1.60;1.50;;;14.10;82.90;;;;;;5154441;27;20416;-71
2021/08/04 03:50:58;;;;;;;2.58;1.77;;;14.10;83.00;;;;;;5154391;27;20129;-70
2021/08/04 03:53:24;;;;;;;3.22;1.60;;;14.10;83.00;;;;;;5154385;27;20097;-71
2021/08/04 03:55:49;;;;;;;1.77;1.50;;;14.10;83.20;;;;;;5154389;27;20029;-71
2021/08/04 03:58:15;;;;;;;2.42;1.70;;;14.10;83.20;;;;;;5154275;27;20023;-71
2021/08/04 04:00:42;;;;;;;5.60;2.17;;;14.10;83.10;;;;;;5154251;27;20019;-71
2021/08/04 04:03:08;;;;;;;8.93;2.03;;;14.10;83.00;;;;;;5158189;27;20453;-71
2021/08/04 04:05:34;;;;;;;2.20;1.58;;;14.00;82.80;;;;;;5158120;27;20097;-71
2021/08/04 04:07:59;;;;;;;4.05;1.88;;;14.00;82.80;;;;;;5158120;27;20023;-71
2021/08/04 04:10:25;;;;;;;2.13;1.60;;;14.10;83.10;;;;;;5158208;27;20027;-71
2021/08/04 04:12:50;;;;;;;2.38;1.52;;;14.10;83.00;;;;;;5157867;27;20389;-71
2021/08/04 04:15:16;;;;;;;2.00;1.60;;;14.10;83.00;;;;;;5157954;27;20424;-71
2021/08/04 04:17:41;;;;;;;4.30;1.90;;;14.10;82.80;;;;;;5157972;27;20047;-71
2021/08/04 04:20:08;;;;;;;2.30;1.88;;;14.10;82.90;;;;;;5157944;27;20045;-73
2021/08/04 04:22:33;;;;;;;7.03;2.17;;;14.10;82.80;;;;;;5157886;27;20041;-74
2021/08/04 04:24:59;;;;;;;3.17;1.83;;;14.00;82.80;;;;;;5158058;27;20382;-74
2021/08/04 04:27:25;;;;;;;2.38;1.85;;;14.00;83.00;;;;;;5157880;27;20050;-74
2021/08/04 04:29:50;;;;;;;2.20;1.60;;;14.00;83.10;;;;;;5157908;27;20497;-74
2021/08/04 04:32:17;;;;;;;2.38;1.55;;;14.00;83.20;;;;;;5157664;27;20177;-74
2021/08/04 04:34:43;;;;;;;4.00;1.90;;;14.00;83.70;;;;;;5157713;27;20529;-73
2021/08/04 04:37:08;;;;;;;3.97;1.90;;;14.00;83.50;;;;;;5157639;27;20030;-73
2021/08/04 04:39:34;;;;;;;5.20;2.28;;;14.00;83.40;;;;;;5157609;27;20528;-73
2021/08/04 04:41:59;;;;;;;4.20;2.17;;;14.10;83.50;;;;;;5157478;27;20493;-74
2021/08/04 04:44:25;;;;;;;2.70;1.80;;;14.10;83.40;;;;;;5157640;27;20105;-75
2021/08/04 04:46:51;;;;;;;4.03;1.90;;;14.10;83.30;;;;;;5157525;27;20018;-74
2021/08/04 04:49:16;;;;;;;3.55;2.08;;;14.10;83.20;;;;;;5158131;27;20031;-73
2021/08/04 04:51:42;;;;;;;2.45;1.90;;;14.10;83.40;;;;;;5157757;27;20046;-73
2021/08/04 04:54:07;;;;;;;3.42;2.20;;;14.00;83.30;;;;;;5161839;27;20026;-74
2021/08/04 04:56:33;;;;;;;3.53;2.17;;;14.10;83.40;;;;;;5157317;27;20045;-74
2021/08/04 04:58:58;;;;;;;3.58;1.50;;;14.10;83.50;;;;;;5157420;27;20027;-73
2021/08/04 05:01:24;;;;;;;3.72;1.98;;;14.20;83.50;;;;;;5157143;27;20027;-73
2021/08/04 05:03:50;;;;;;;4.22;2.55;;;14.20;83.10;;;;;;5157179;27;20023;-74
2021/08/04 05:06:16;;;;;;;4.97;2.33;;;14.30;83.00;;;;;;5157057;27;20026;-74
2021/08/04 05:08:41;;;;;;;2.20;1.90;;;14.30;83.00;;;;;;5156975;27;20019;-73
2021/08/04 05:11:07;;;;;;;2.70;2.20;;;14.30;82.60;;;;;;5157080;27;20459;-74
2021/08/04 05:13:36;;;;;;;2.38;1.95;;;14.20;82.40;;;;;;5155995;27;20027;-73
2021/08/04 05:16:02;;;;;;;5.20;2.15;;;14.20;82.40;;;;;;5156872;27;20015;-74
2021/08/04 05:18:28;;;;;;;3.72;2.13;;;14.20;82.70;;;;;;5156728;27;20033;-73
2021/08/04 05:20:53;;;;;;;2.25;1.75;;;14.20;82.50;;;;;;5156789;27;20459;-74
2021/08/04 05:23:19;;;;;;;3.75;2.08;;;14.20;82.40;;;;;;5156752;27;20030;-73
2021/08/04 05:25:44;;;;;;;5.53;1.92;;;14.20;82.30;;;;;;5156656;27;20023;-74
2021/08/04 05:28:10;;;;;;;3.15;1.80;;;14.30;82.20;;;;;;5156564;27;20029;-73
2021/08/04 05:30:35;;;;;;;3.55;1.90;;;14.30;82.30;;;;;;5156487;27;20022;-72
2021/08/04 05:33:01;;;;;;;4.07;1.73;;;14.30;82.20;;;;;;5156505;27;20124;-74
2021/08/04 05:35:26;;;;;;;5.47;1.80;;;14.30;82.10;;;;;;5156389;27;20046;-76
2021/08/04 05:37:52;;;;;;;3.55;1.90;;;14.20;82.20;;;;;;5156478;27;20498;-71
2021/08/04 05:40:17;;;;;;;2.50;2.13;;;14.30;82.50;;;;;;5156455;27;20083;-76
2021/08/04 05:42:43;;;;;;;3.63;2.25;;;14.30;82.60;;;;;;5154773;27;20138;-73
2021/08/04 05:45:09;;;;;;;4.38;2.38;;;14.30;82.40;;;;;;5155569;27;20087;-73
2021/08/04 05:47:35;;;;;;;3.78;2.13;;;14.30;82.40;;;;;;5155558;27;20105;-73
2021/08/04 05:50:00;;;;;;;3.97;2.55;;;14.40;82.10;;;;;;5154961;27;20062;-74
2021/08/04 05:52:26;;;;;;;6.47;2.47;;;14.50;82.90;;;;;;5155463;27;20030;-75
2021/08/04 05:54:52;;;;;;;5.47;2.40;;;14.60;81.70;;;;;;5155692;27;20026;-74
2021/08/04 05:57:17;;;;;;;4.32;2.50;;;14.60;81.10;;;;;;5155794;27;20027;-74
2021/08/04 05:59:43;;;;;;;3.95;2.40;;;14.70;80.60;;;;;;5155890;27;20039;-75
2021/08/04 06:02:09;;;;;;;7.22;2.72;;;14.80;80.50;;;;;;5155616;27;20478;-76
2021/08/04 06:04:34;;;;;;;2.10;1.90;;;14.80;80.30;;;;;;5155495;27;20027;-76
2021/08/04 06:07:00;;;;;;;6.25;2.47;;;14.90;80.30;;;;;;5155753;27;20023;-75
2021/08/04 06:09:25;;;;;;;3.47;2.10;;;15.00;79.80;;;;;;5155710;27;20026;-74
2021/08/04 06:11:51;;;;;;;3.20;1.90;;;15.20;79.00;;;;;;5155581;27;20459;-74
2021/08/04 06:14:16;;;;;;;5.88;2.10;;;15.30;78.20;;;;;;5155693;27;20086;-76
2021/08/04 06:16:42;;;;;;;4.10;1.92;;;15.50;77.50;;;;;;5155575;27;20489;-74
2021/08/04 06:19:08;;;;;;;2.55;1.67;;;15.50;76.30;;;;;;5137105;27;20444;-73
2021/08/04 06:21:34;;;;;;;3.03;2.33;;;15.70;76.30;;;;;;5155416;27;20529;-74
2021/08/04 06:24:01;;;;;;;6.47;2.45;;;15.80;75.80;;;;;;5155332;27;20416;-79
2021/08/04 06:26:27;;;;;;;9.18;2.53;;;16.00;77.10;;;;;;5136292;27;20498;-79
2021/08/04 06:28:52;;;;;;;9.85;2.38;;;16.30;78.40;;;;;;5136306;27;20114;-77
2021/08/04 06:31:18;;;;;;;6.93;2.20;;;16.60;75.70;;;;;;5136822;27;20114;-77
2021/08/04 06:33:44;;;;;;;4.10;1.77;;;16.70;73.50;;;;;;5136708;27;20038;-77
2021/08/04 06:36:09;;;;;;;5.65;1.63;;;16.90;73.00;;;;;;5136877;27;20014;-85
2021/08/04 06:38:35;;;;;;;3.22;1.80;;;17.00;73.80;;;;;;5137325;27;20115;-85
2021/08/04 06:41:01;;;;;;;3.65;1.48;;;17.00;71.60;;;;;;5136911;27;20019;-84
2021/08/04 06:43:27;;;;;;;3.15;1.90;;;17.10;70.20;;;;;;5137101;27;20216;-84
2021/08/04 06:45:52;;;;;;;3.33;1.70;;;17.10;70.00;;;;;;5136841;27;20046;-86
2021/08/04 06:48:18;;;;;;;2.00;1.60;;;17.40;70.40;;;;;;5137145;27;20023;-85
2021/08/04 06:50:44;;;;;;;2.95;1.90;;;17.60;67.70;;;;;;5136785;27;20506;-84
2021/08/04 06:53:10;;;;;;;4.15;1.65;;;17.70;67.50;;;;;;5158825;27;20515;-81
2021/08/04 06:55:39;;;;;;;1.92;1.45;;;17.80;66.80;;;;;;5144465;27;20133;-83
2021/08/04 06:58:04;;;;;;;4.20;1.70;;;17.80;66.80;;;;;;5155522;27;20010;-78
2021/08/04 07:00:31;;;;;;;1.60;1.50;;;17.90;66.90;;;;;;5160988;27;20023;-79
2021/08/04 07:02:57;;;;;;;2.63;1.60;;;17.80;63.80;;;;;;5141546;27;20122;-85
2021/08/04 07:05:23;;;;;;;3.00;1.40;;;17.60;65.70;;;;;;5142127;27;20019;-76
2021/08/04 07:07:50;;;;;;;3.30;1.85;;;17.50;64.50;;;;;;5158766;27;20023;-83
2021/08/04 07:10:16;;;;;;;2.65;1.55;;;17.50;66.00;;;;;;5160745;27;20015;-86
2021/08/04 07:12:42;;;;;;;2.45;1.67;;;17.40;66.50;;;;;;5138067;27;20015;-85
2021/08/04 07:15:11;;;;;;;2.17;1.42;;;17.40;66.70;;;;;;5154853;27;20470;-85
2021/08/04 07:17:47;;;;;;;2.45;1.60;;;17.40;65.70;;;;;;5135920;27;20022;-85
2021/08/04 07:20:14;;;;;;;4.13;1.60;;;17.30;66.20;;;;;;5136652;27;20474;-86
2021/08/04 07:22:41;;;;;;;1.60;1.40;;;17.10;66.70;;;;;;5154941;27;20109;-89
2021/08/04 07:25:08;;;;;;;2.92;1.95;;;17.20;66.80;;;;;;5136626;27;20129;-83
2021/08/04 07:27:35;;;;;;;4.10;1.77;;;17.30;67.80;;;;;;5135786;27;20027;-74
2021/08/04 07:30:01;;;;;;;6.35;1.95;;;17.20;67.90;;;;;;5136844;27;20026;-81
2021/08/04 07:32:27;;;;;;;5.63;1.90;;;17.20;68.10;;;;;;5136081;27;20138;-85
2021/08/04 07:34:53;;;;;;;3.35;1.95;;;17.30;68.70;;;;;;5136552;27;20483;-86
2021/08/04 07:37:18;;;;;;;2.30;1.67;;;17.30;68.80;;;;;;5139591;27;20038;-87
2021/08/04 07:39:44;;;;;;;1.98;1.42;;;17.40;68.30;;;;;;5141003;27;20473;-79
2021/08/04 07:42:11;;;;;;;2.42;1.40;;;17.60;68.30;;;;;;5123023;27;20023;-83
2021/08/04 07:44:37;;;;;;;2.42;1.70;;;17.90;66.70;;;;;;5158390;27;20118;-81
2021/08/04 07:47:03;;;;;;;3.03;1.70;;;17.90;66.40;;;;;;5122820;27;20027;-83
2021/08/04 07:49:29;;;;;;;4.53;2.00;;;18.00;65.20;;;;;;5139160;27;20026;-82
2021/08/04 07:51:54;;;;;;;2.28;1.52;;;18.00;65.40;;;;;;5139581;27;20486;-82
2021/08/04 07:54:21;;;;;;;1.77;1.48;;;18.10;65.40;;;;;;5139720;27;20038;-82
2021/08/04 07:56:46;;;;;;;3.25;1.75;;;18.00;65.20;;;;;;5139928;27;20023;-77
2021/08/04 07:59:12;;;;;;;2.78;1.67;;;18.00;65.30;;;;;;5139450;27;20063;-82
2021/08/04 08:01:39;;;;;;;1.67;1.38;;;18.00;64.80;;;;;;5140252;27;20046;-83
2021/08/04 08:04:05;;;;;;;2.03;1.50;;;18.00;64.90;;;;;;5139816;27;20436;-82
2021/08/04 08:06:30;;;;;;;3.65;1.50;;;18.20;65.50;;;;;;5139670;27;20027;-83
2021/08/04 08:08:56;;;;;;;1.30;1.20;;;18.30;63.90;;;;;;5139556;27;20056;-82
2021/08/04 08:11:22;;;;;;;1.40;1.15;;;18.30;62.70;;;;;;5139152;27;20060;-83
2021/08/04 08:13:49;;;;;;;3.13;1.50;;;18.30;62.90;;;;;;5139417;27;20095;-83
2021/08/04 08:16:17;;;;;;;2.40;1.50;;;18.30;63.50;;;;;;5139959;27;20023;-84
2021/08/04 08:18:42;;;;;;;2.38;1.55;;;18.30;63.30;;;;;;5158248;27;20015;-82
2021/08/04 08:21:08;;;;;;;3.33;1.67;;;18.30;62.90;;;;;;5139119;27;20071;-83
2021/08/04 08:23:33;;;;;;;2.22;1.40;;;18.30;62.90;;;;;;5138912;27;20023;-83
2021/08/04 08:26:00;;;;;;;2.35;1.38;;;18.30;62.90;;;;;;5157450;27;20116;-83
2021/08/04 08:28:26;;;;;;;1.50;1.40;;;18.20;63.20;;;;;;5157965;27;20385;-83
2021/08/04 08:30:51;;;;;;;1.95;1.40;;;18.20;63.10;;;;;;5138579;27;20018;-83
2021/08/04 08:33:17;;;;;;;1.88;1.30;;;18.10;63.70;;;;;;5138924;27;20117;-82
2021/08/04 08:35:43;;;;;;;2.58;1.48;;;18.00;63.00;;;;;;5138678;27;20025;-84
2021/08/04 08:38:10;;;;;;;1.95;1.48;;;18.00;64.10;;;;;;5138513;27;20538;-84
2021/08/04 08:40:35;;;;;;;3.33;1.67;;;17.70;65.00;;;;;;5122181;27;20064;-82
2021/08/04 08:43:02;;;;;;;1.52;1.30;;;17.60;64.40;;;;;;5138741;27;20099;-84
2021/08/04 08:45:28;;;;;;;1.25;1.10;;;17.60;64.80;;;;;;5138868;27;20121;-84
2021/08/04 08:47:55;;;;;;;2.45;1.38;;;17.70;64.80;;;;;;5137697;27;20026;-83
2021/08/04 08:50:25;;;;;;;1.60;1.17;;;17.80;64.50;;;;;;5157157;27;20502;-83
2021/08/04 08:52:52;;;;;;;1.70;1.27;;;17.90;63.90;;;;;;5138713;27;20035;-83
2021/08/04 08:55:18;;;;;;;3.00;1.23;;;18.00;63.40;;;;;;5138469;27;20029;-84
2021/08/04 08:57:43;;;;;;;2.00;1.50;;;18.10;63.60;;;;;;5138870;27;20022;-83
2021/08/04 09:00:10;;;;;;;1.55;1.33;;;18.20;63.10;;;;;;5157027;27;20419;-84
2021/08/04 09:02:35;;;;;;;2.13;1.25;;;18.30;62.50;;;;;;5120577;27;20027;-84
2021/08/04 09:05:05;;;;;;;1.75;1.35;;;18.40;62.60;;;;;;5138333;27;20018;-84
2021/08/04 09:07:33;;;;;;;2.05;1.38;;;18.30;62.30;;;;;;5138414;27;20022;-83
2021/08/04 09:09:59;;;;;;;1.15;1.00;;;18.40;62.60;;;;;;5137960;27;20019;-83
2021/08/04 09:12:24;;;;;;;2.38;1.35;;;18.40;62.60;;;;;;5138164;27;20467;-82
2021/08/04 09:14:50;;;;;;;2.63;1.00;;;18.40;61.70;;;;;;5137914;27;20035;-81
2021/08/04 09:17:18;;;;;;;3.00;1.30;;;18.50;62.30;;;;;;5137566;27;20029;-84
2021/08/04 09:19:47;;;;;;;1.27;1.13;;;18.60;62.00;;;;;;5138077;27;20051;-81
2021/08/04 09:22:19;;;;;;;3.28;1.50;;;18.80;61.70;;;;;;5121187;27;20023;-81
2021/08/04 09:25:13;;;;;;;1.85;1.30;;;19.00;61.60;;;;;;5138162;27;20363;-83
2021/08/04 09:27:51;;;;;;;3.58;1.27;;;19.30;61.40;;;;;;5135020;27;20031;-82
2021/08/04 09:30:29;;;;;;;1.35;1.25;;;19.50;60.10;;;;;;5138692;27;20025;-85
2021/08/04 09:33:13;;;;;;;1.70;1.23;;;19.80;59.50;;;;;;5156131;27;20088;-82
2021/08/04 09:35:52;;;;;;;1.23;1.10;;;20.10;58.60;;;;;;5156144;27;20014;-88
2021/08/04 09:38:19;;;;;;;1.92;1.20;;;20.30;57.80;;;;;;5137939;27;20034;-82
2021/08/04 09:40:47;;;;;;;1.73;1.40;;;20.40;56.80;;;;;;5138000;27;20059;-88
2021/08/04 09:43:26;;;;;;;1.63;1.20;;;20.50;56.00;;;;;;5138259;27;20019;-85
2021/08/04 09:45:54;;;;;;;2.08;1.08;;;20.60;56.20;;;;;;5157855;27;20019;-76
2021/08/04 09:48:24;;;;;;;3.65;1.15;;;20.50;55.70;;;;;;5139955;27;20410;-75
2021/08/04 09:50:58;;;;;;;2.28;1.15;;;20.60;56.10;;;;;;5161504;27;20042;-79
2021/08/04 09:53:25;;;;;;;3.25;1.30;;;20.50;55.40;;;;;;5158081;27;20027;-76
2021/08/04 09:56:12;;;;;;;3.15;1.80;;;20.20;54.80;;;;;;5157492;27;20056;-77
2021/08/04 09:58:52;;;;;;;2.60;1.25;;;20.10;55.50;;;;;;5148644;27;20129;-75
2021/08/04 10:01:36;;;;;;;1.98;1.10;;;20.00;55.70;;;;;;5158039;27;20054;-76
2021/08/04 10:04:04;;;;;;;1.80;1.02;;;20.00;56.10;;;;;;5156836;27;20031;-72
2021/08/04 10:06:30;;;;;;;3.60;1.10;;;20.10;56.30;;;;;;5160227;27;20022;-76
2021/08/04 10:08:57;;;;;;;2.03;1.55;;;20.30;57.60;;;;;;5156110;27;20031;-75
2021/08/04 10:11:24;;;;;;;1.48;1.23;;;20.50;56.30;;;;;;5156025;27;20019;-73
2021/08/04 10:13:51;;;;;;;1.15;1.05;;;20.60;54.30;;;;;;5155554;27;20080;-72
2021/08/04 10:16:17;;;;;;;3.72;1.27;;;20.50;52.90;;;;;;5155581;27;20037;-72
2021/08/04 10:18:44;;;;;;;2.33;1.42;;;20.50;53.20;;;;;;5155498;27;20023;-72
2021/08/04 10:21:13;;;;;;;3.00;1.40;;;20.40;54.20;;;;;;5155371;27;20359;-71
2021/08/04 10:23:44;;;;;;;1.15;1.02;;;20.30;56.10;;;;;;5155151;27;20023;-72
2021/08/04 10:26:12;;;;;;;1.40;1.30;;;20.30;56.10;;;;;;5155093;27;20030;-73
2021/08/04 10:28:39;;;;;;;3.10;1.10;;;20.30;56.60;;;;;;5136492;27;20029;-71
2021/08/04 10:31:05;;;;;;;1.10;1.00;;;20.50;57.40;;;;;;5155054;27;20029;-75
2021/08/04 10:33:31;;;;;;;2.55;1.27;;;20.80;56.00;;;;;;5155208;27;20035;-73
2021/08/04 10:36:00;;;;;;;2.85;1.30;;;21.20;56.00;;;;;;5155560;27;20462;-72
2021/08/04 10:38:27;;;;;;;1.20;1.10;;;21.50;55.70;;;;;;5155200;27;20057;-72
2021/08/04 10:41:12;;;;;;;1.85;1.02;;;21.80;53.70;;;;;;5155000;27;20031;-73
2021/08/04 10:43:41;;;;;;;3.85;2.33;;;22.00;51.50;;;;;;5155158;27;20022;-74
2021/08/04 10:46:28;;;;;;;3.22;1.35;;;22.10;50.30;;;;;;5155031;27;20022;-73
2021/08/04 10:49:04;;;;;;;1.45;0.90;;;22.00;51.00;;;;;;5154818;27;20015;-72
2021/08/04 10:51:31;;;;;;;1.63;1.23;;;21.90;51.40;;;;;;5154674;27;20482;-72
2021/08/04 10:54:03;;;;;;;1.08;0.98;;;21.90;51.20;;;;;;5154624;27;20043;-71
2021/08/04 10:56:32;;;;;;;1.20;1.08;;;22.00;51.40;;;;;;5154749;27;20029;-71
2021/08/04 10:59:25;;;;;;;1.63;0.90;;;22.10;50.50;;;;;;5154669;27;20506;-71
2021/08/04 11:02:15;;;;;;;2.03;0.90;;;22.10;49.50;;;;;;5154616;27;20053;-71
2021/08/04 11:04:43;;;;;;;1.05;0.98;;;22.20;49.40;;;;;;5154207;27;20387;-71
2021/08/04 11:07:09;;;;;;;2.10;0.88;;;22.00;48.70;;;;;;5154515;27;20049;-72
2021/08/04 11:09:59;;;;;;;1.85;1.00;;;21.70;49.30;;;;;;5154370;27;20739;-72
2021/08/04 11:12:27;;;;;;;1.40;0.90;;;21.80;49.30;;;;;;5153212;27;20019;-72
2021/08/04 11:14:58;;;;;;;0.75;0.73;;;22.00;50.30;;;;;;5154476;27;20030;-71
2021/08/04 11:17:31;;;;;;;0.80;0.80;;;22.00;49.60;;;;;;5154376;27;20044;-71
2021/08/04 11:20:05;;;;;;;1.10;0.90;;;22.00;49.50;;;;;;5154645;27;20033;-72
2021/08/04 11:22:43;;;;;;;0.73;0.73;;;22.10;49.70;;;;;;5154434;27;20539;-72
2021/08/04 11:25:10;;;;;;;1.67;0.93;;;22.10;48.80;;;;;;5136005;27;20420;-72
2021/08/04 11:27:57;;;;;;;1.00;0.90;;;22.00;48.40;;;;;;5154306;27;20478;-73
2021/08/04 11:30:31;;;;;;;1.85;0.80;;;21.80;48.30;;;;;;5154268;27;20019;-73
2021/08/04 11:33:18;;;;;;;1.42;0.98;;;21.70;48.10;;;;;;5154186;27;20118;-74
2021/08/04 11:36:05;;;;;;;1.45;0.80;;;21.70;49.40;;;;;;5154359;27;20500;-73
2021/08/04 11:38:52;;;;;;;1.27;0.80;;;21.70;50.20;;;;;;5154222;27;20113;-73
2021/08/04 11:41:19;;;;;;;1.73;0.52;;;21.60;50.10;;;;;;5154276;27;20023;-77
2021/08/04 11:43:46;;;;;;;1.15;0.77;;;21.60;50.30;;;;;;5154101;27;20034;-75
2021/08/04 11:46:27;;;;;;;1.40;1.15;;;21.40;49.80;;;;;;5137132;27;20023;-73
2021/08/04 11:48:53;;;;;;;2.28;1.25;;;21.30;49.10;;;;;;5158389;27;20022;-72
2021/08/04 11:51:43;;;;;;;2.35;1.00;;;21.20;48.50;;;;;;5162430;27;20095;-72
2021/08/04 11:54:10;;;;;;;1.55;1.08;;;20.90;48.90;;;;;;5158272;27;20123;-73
2021/08/04 11:56:43;;;;;;;1.95;1.13;;;20.80;49.60;;;;;;5154560;27;20059;-72
2021/08/04 11:59:08;;;;;;;1.10;1.00;;;20.60;51.00;;;;;;5155164;27;20398;-72
2021/08/04 12:01:34;;;;;;;2.00;1.20;;;20.20;53.50;;;;;;5154130;27;20023;-72
2021/08/04 12:04:17;;;;;;;1.08;0.90;;;20.30;53.70;;;;;;5154290;27;20471;-72
2021/08/04 12:06:55;;;;;;;1.60;1.08;;;20.40;52.70;;;;;;5158616;27;20023;-72
2021/08/04 12:09:23;;;;;;;1.88;1.05;;;20.40;51.90;;;;;;5156237;27;20073;-72
2021/08/04 12:11:49;;;;;;;1.92;1.67;;;20.40;52.40;;;;;;5170882;27;20025;-72
2021/08/04 12:14:18;;;;;;;1.67;1.08;;;20.50;53.00;;;;;;5167567;27;20069;-72
2021/08/04 12:16:46;;;;;;;1.13;0.80;;;20.60;52.80;;;;;;5178498;27;20026;-73
2021/08/04 12:19:45;;;;;;;1.60;1.02;;;20.70;52.90;;;;;;5161096;27;20046;-72
2021/08/04 12:22:26;;;;;;;1.58;1.00;;;20.90;52.30;;;;;;5154148;27;20033;-72
2021/08/04 12:25:02;;;;;;;1.05;0.85;;;20.90;50.90;;;;;;5158529;27;20023;-72
2021/08/04 12:27:30;;;;;;;1.52;1.08;;;20.70;51.20;;;;;;5165882;27;20084;-72
2021/08/04 12:30:09;;;;;;;1.75;1.20;;;20.30;53.10;;;;;;5158764;27;20043;-72
2021/08/04 12:32:57;;;;;;;1.63;1.00;;;20.10;53.90;;;;;;5159278;27;20069;-72
2021/08/04 12:35:26;;;;;;;1.15;1.00;;;19.90;54.80;;;;;;5163249;27;20042;-72
2021/08/04 12:37:53;;;;;;;1.08;0.77;;;19.80;54.30;;;;;;5163963;27;20023;-72
2021/08/04 12:40:20;;;;;;;2.90;1.20;;;19.70;53.60;;;;;;5166074;27;20027;-72
2021/08/04 12:42:46;;;;;;;0.70;0.70;;;19.70;54.20;;;;;;5170227;27;20051;-73
2021/08/04 12:45:27;;;;;;;2.30;1.15;;;19.70;53.30;;;;;;5172091;27;20031;-73
2021/08/04 12:47:59;;;;;;;1.33;1.08;;;19.70;53.00;;;;;;5172105;27;20087;-72
2021/08/04 12:50:30;;;;;;;1.13;1.02;;;19.80;52.60;;;;;;5167564;27;20039;-73
2021/08/04 12:52:58;;;;;;;1.33;0.95;;;19.90;52.60;;;;;;5171845;27;20035;-73
2021/08/04 12:55:25;;;;;;;0.90;0.90;;;19.90;52.60;;;;;;5172620;27;20087;-72